createdAt,value
2022-11-27T00:01:20.915Z,102668.16
2022-11-27T00:03:49.143Z,102664.66
2022-11-27T00:06:19.330Z,102673.31
2022-11-27T00:08:49.507Z,102663.88
2022-11-27T00:11:19.440Z,102644.03
2022-11-27T00:13:47.996Z,102625.84
2022-11-27T00:16:16.262Z,102658.06
2022-11-27T00:18:44.441Z,102668.28
2022-11-27T00:21:14.165Z,102614.16
2022-11-27T00:23:42.680Z,102621.88
2022-11-27T00:26:12.355Z,102652.13
2022-11-27T00:28:40.624Z,102645.75
2022-11-27T00:31:13.463Z,102645.63
2022-11-27T00:33:41.736Z,102646.41
2022-11-27T00:36:11.039Z,102658.97
2022-11-27T00:38:39.476Z,102657.16
2022-11-27T00:41:08.685Z,102660.53
2022-11-27T00:43:44.399Z,102654.44
2022-11-27T00:46:13.602Z,102653.53
2022-11-27T00:48:41.667Z,102650.03
2022-11-27T00:51:11.716Z,102653.38
2022-11-27T00:53:39.755Z,102640.81
2022-11-27T00:56:08.180Z,102633.66
2022-11-27T00:58:37.444Z,102644.16
2022-11-27T01:01:07.429Z,102651.44
2022-11-27T01:03:36.528Z,102650.16
2022-11-27T01:06:06.587Z,102645.91
2022-11-27T01:08:35.176Z,102648.34
2022-11-27T01:11:03.505Z,102631.22
2022-11-27T01:13:34.233Z,102648.63
2022-11-27T01:16:06.801Z,102643.19
2022-11-27T01:18:35.449Z,102596.84
2022-11-27T01:21:04.545Z,102654.22
2022-11-27T01:23:32.937Z,102619.56
2022-11-27T01:26:01.519Z,102655.13
2022-11-27T01:28:30.033Z,102650.59
2022-11-27T01:30:58.163Z,102652.53
2022-11-27T01:33:27.327Z,102652.41
2022-11-27T01:35:56.719Z,102661.06
2022-11-27T01:38:25.200Z,102650.72
2022-11-27T01:40:58.302Z,102651.63
2022-11-27T01:43:42.100Z,102643.72
2022-11-27T01:46:30.135Z,102647.09
2022-11-27T01:49:06.600Z,102641.00
2022-11-27T01:51:34.606Z,102645.28
2022-11-27T01:54:02.389Z,102649.53
2022-11-27T01:56:31.239Z,102643.59
2022-11-27T01:59:01.062Z,102642.81
2022-11-27T02:01:29.046Z,102635.28
2022-11-27T02:04:02.231Z,102653.03
2022-11-27T02:06:30.612Z,102660.03
2022-11-27T02:08:58.826Z,102620.31
2022-11-27T02:11:37.404Z,102650.44
2022-11-27T02:14:16.383Z,102649.69
2022-11-27T02:16:52.467Z,102647.22
2022-11-27T02:19:34.387Z,102659.53
2022-11-27T02:22:09.482Z,102654.09
2022-11-27T02:24:50.595Z,102658.00
2022-11-27T02:27:38.487Z,102632.56
2022-11-27T02:30:09.047Z,102670.16
2022-11-27T02:32:40.867Z,102668.63
2022-11-27T02:35:15.744Z,102599.56
2022-11-27T02:37:48.808Z,102666.81
2022-11-27T02:40:26.068Z,102622.78
2022-11-27T02:42:59.167Z,102668.69
2022-11-27T02:45:34.013Z,102678.69
2022-11-27T02:48:02.088Z,102672.63
2022-11-27T02:50:33.224Z,102677.03
2022-11-27T02:53:05.120Z,102554.91
2022-11-27T02:55:35.868Z,102669.88
2022-11-27T02:58:08.415Z,102657.59
2022-11-27T03:00:39.700Z,102664.44
2022-11-27T03:03:11.924Z,102667.78
2022-11-27T03:05:43.351Z,102663.25
2022-11-27T03:08:19.596Z,102645.97
2022-11-27T03:10:51.982Z,102635.56
2022-11-27T03:13:20.384Z,102661.00
2022-11-27T03:16:01.380Z,102657.38
2022-11-27T03:18:38.431Z,102658.06
2022-11-27T03:21:23.367Z,102673.53
2022-11-27T03:23:51.585Z,102668.97
2022-11-27T03:26:19.523Z,102670.53
2022-11-27T03:28:48.245Z,102676.47
2022-11-27T03:31:17.961Z,102672.19
2022-11-27T03:33:46.149Z,102667.78
2022-11-27T03:36:16.197Z,102662.47
2022-11-27T03:38:46.640Z,102676.59
2022-11-27T03:41:22.770Z,102666.25
2022-11-27T03:44:01.403Z,102668.97
2022-11-27T03:46:41.112Z,102670.03
2022-11-27T03:49:19.605Z,102667.59
2022-11-27T03:51:54.516Z,102668.63
2022-11-27T03:54:31.679Z,102667.88
2022-11-27T03:57:07.860Z,102661.78
2022-11-27T03:59:40.747Z,102655.69
2022-11-27T04:02:14.646Z,102662.41
2022-11-27T04:04:42.965Z,102655.91
2022-11-27T04:07:16.961Z,102665.78
2022-11-27T04:09:45.058Z,102669.25
2022-11-27T04:12:12.867Z,102664.09
2022-11-27T04:14:40.873Z,102664.22
2022-11-27T04:17:09.575Z,102662.41
2022-11-27T04:19:38.765Z,102663.31
2022-11-27T04:22:06.593Z,102666.69
2022-11-27T04:24:34.570Z,102677.31
2022-11-27T04:27:02.354Z,102657.25
2022-11-27T04:29:30.157Z,102660.44
2022-11-27T04:31:58.657Z,102673.19
2022-11-27T04:34:26.564Z,102665.13
2022-11-27T04:36:55.743Z,102650.59
2022-11-27T04:39:23.938Z,102651.44
2022-11-27T04:41:51.735Z,102653.38
2022-11-27T04:44:19.609Z,102632.75
2022-11-27T04:46:47.786Z,102653.38
2022-11-27T04:49:15.627Z,102655.97
2022-11-27T04:51:43.446Z,102632.63
2022-11-27T04:54:13.123Z,102614.59
2022-11-27T04:56:40.931Z,102646.53
2022-11-27T04:59:08.720Z,102641.34
2022-11-27T05:01:37.221Z,102636.94
2022-11-27T05:04:05.350Z,102626.81
2022-11-27T05:06:33.156Z,102635.78
2022-11-27T05:09:02.335Z,102635.00
2022-11-27T05:11:35.306Z,102632.28
2022-11-27T05:14:20.255Z,102633.03
2022-11-27T05:16:50.320Z,102631.84
2022-11-27T05:19:20.520Z,102610.81
2022-11-27T05:21:49.141Z,102637.66
2022-11-27T05:24:18.011Z,102645.41
2022-11-27T05:26:47.919Z,102642.84
2022-11-27T05:29:16.476Z,102645.41
2022-11-27T05:31:44.613Z,102633.88
2022-11-27T05:34:12.698Z,102642.97
2022-11-27T05:36:41.197Z,102642.69
2022-11-27T05:39:09.903Z,102641.44
2022-11-27T05:41:39.127Z,102638.84
2022-11-27T05:44:08.692Z,102633.25
2022-11-27T05:46:36.569Z,102646.59
2022-11-27T05:49:06.278Z,102645.84
2022-11-27T05:51:34.495Z,102633.41
2022-11-27T05:54:02.308Z,102640.66
2022-11-27T05:56:30.133Z,102645.97
2022-11-27T05:58:58.237Z,102645.97
2022-11-27T06:01:27.462Z,102648.56
2022-11-27T06:03:55.311Z,102630.66
2022-11-27T06:06:23.304Z,102641.56
2022-11-27T06:08:51.111Z,102641.72
2022-11-27T06:11:21.679Z,102630.66
2022-11-27T06:13:50.618Z,102630.81
2022-11-27T06:16:22.441Z,102638.34
2022-11-27T06:18:53.195Z,102640.94
2022-11-27T06:21:21.895Z,102633.03
2022-11-27T06:23:50.284Z,102596.97
2022-11-27T06:26:19.656Z,102553.78
2022-11-27T06:28:48.793Z,102628.00
2022-11-27T06:31:18.726Z,102641.72
2022-11-27T06:33:46.949Z,102631.22
2022-11-27T06:36:16.876Z,102599.56
2022-11-27T06:38:45.405Z,102612.91
2022-11-27T06:41:15.404Z,102580.84
2022-11-27T06:43:43.628Z,102608.09
2022-11-27T06:46:15.468Z,102641.44
2022-11-27T06:48:43.781Z,102586.00
2022-11-27T06:51:14.180Z,102627.81
2022-11-27T06:53:44.463Z,102597.81
2022-11-27T06:56:14.205Z,102637.81
2022-11-27T06:58:43.126Z,102620.53
2022-11-27T07:01:13.479Z,102597.81
2022-11-27T07:03:41.734Z,102636.13
2022-11-27T07:06:13.011Z,102621.88
2022-11-27T07:08:41.124Z,102626.53
2022-11-27T07:11:13.549Z,102624.72
2022-11-27T07:13:41.821Z,102628.50
2022-11-27T07:16:12.913Z,102623.19
2022-11-27T07:18:42.588Z,102620.75
2022-11-27T07:21:11.355Z,102624.09
2022-11-27T07:23:40.004Z,102573.06
2022-11-27T07:26:08.996Z,102620.81
2022-11-27T07:28:38.342Z,102609.41
2022-11-27T07:31:06.560Z,102612.13
2022-11-27T07:33:34.416Z,102611.38
2022-11-27T07:36:04.156Z,102609.56
2022-11-27T07:38:32.248Z,102608.44
2022-11-27T07:41:01.580Z,102594.19
2022-11-27T07:43:29.665Z,102612.22
2022-11-27T07:45:59.391Z,102609.00
2022-11-27T07:48:27.332Z,102610.03
2022-11-27T07:50:55.251Z,102594.50
2022-11-27T07:53:23.163Z,102607.44
2022-11-27T07:55:53.286Z,102609.91
2022-11-27T07:58:21.435Z,102605.78
2022-11-27T08:00:49.396Z,102604.44
2022-11-27T08:03:18.553Z,102615.47
2022-11-27T08:05:46.579Z,102599.97
2022-11-27T08:08:14.515Z,102612.13
2022-11-27T08:10:42.640Z,102607.84
2022-11-27T08:13:10.696Z,102611.50
2022-11-27T08:15:38.913Z,102602.06
2022-11-27T08:18:06.783Z,102601.41
2022-11-27T08:20:36.097Z,102597.16
2022-11-27T08:23:04.008Z,102606.22
2022-11-27T08:25:31.909Z,102600.44
2022-11-27T08:27:59.776Z,102606.00
2022-11-27T08:30:27.741Z,102600.69
2022-11-27T08:32:55.575Z,102603.97
2022-11-27T08:35:23.724Z,102561.69
2022-11-27T08:37:53.206Z,102577.75
2022-11-27T08:40:21.228Z,102608.16
2022-11-27T08:42:49.191Z,102611.00
2022-11-27T08:45:17.324Z,102590.81
2022-11-27T08:47:45.189Z,102601.97
2022-11-27T08:50:13.111Z,102594.19
2022-11-27T08:52:40.956Z,102592.53
2022-11-27T08:55:10.886Z,102500.19
2022-11-27T08:57:39.202Z,102598.88
2022-11-27T09:00:08.969Z,102603.41
2022-11-27T09:02:36.863Z,102605.47
2022-11-27T09:05:07.208Z,102601.47
2022-11-27T09:07:35.181Z,102590.84
2022-11-27T09:10:03.035Z,102601.22
2022-11-27T09:12:32.405Z,102597.09
2022-11-27T09:15:00.260Z,102597.34
2022-11-27T09:17:28.512Z,102579.47
2022-11-27T09:19:56.433Z,102602.16
2022-11-27T09:22:24.340Z,102606.56
2022-11-27T09:24:52.134Z,102608.66
2022-11-27T09:27:20.045Z,102598.69
2022-11-27T09:29:49.748Z,102594.16
2022-11-27T09:32:17.846Z,102590.53
2022-11-27T09:34:45.876Z,102614.50
2022-11-27T09:37:13.865Z,102617.63
2022-11-27T09:39:41.747Z,102619.56
2022-11-27T09:42:18.576Z,102611.13
2022-11-27T09:44:54.139Z,102630.97
2022-11-27T09:47:29.592Z,102623.22
2022-11-27T09:50:01.733Z,102617.13
2022-11-27T09:52:39.585Z,102627.63
2022-11-27T09:55:15.118Z,102619.97
2022-11-27T09:57:47.614Z,102614.38
2022-11-27T10:00:19.555Z,102615.44
2022-11-27T10:02:48.167Z,102630.97
2022-11-27T10:05:22.244Z,102639.41
2022-11-27T10:08:06.937Z,102637.44
2022-11-27T10:10:41.961Z,102619.16
2022-11-27T10:13:22.733Z,102631.09
2022-11-27T10:15:58.112Z,102626.69
2022-11-27T10:18:36.820Z,102617.47
2022-11-27T10:21:11.182Z,102625.13
2022-11-27T10:23:45.281Z,102632.13
2022-11-27T10:26:18.880Z,102628.75
2022-11-27T10:28:55.721Z,102612.31
2022-11-27T10:31:34.309Z,102605.03
2022-11-27T10:34:05.299Z,102598.69
2022-11-27T10:36:38.023Z,102603.50
2022-11-27T10:39:13.318Z,102594.81
2022-11-27T10:41:49.686Z,102598.44
2022-11-27T10:44:31.515Z,102602.22
2022-11-27T10:47:05.332Z,102596.25
2022-11-27T10:49:35.072Z,102592.75
2022-11-27T10:52:02.867Z,102594.69
2022-11-27T10:54:35.470Z,102593.00
2022-11-27T10:57:28.292Z,102589.78
2022-11-27T11:00:06.496Z,102595.88
2022-11-27T11:02:38.483Z,102587.19
2022-11-27T11:05:57.257Z,102591.47
2022-11-27T11:08:18.890Z,102597.28
2022-11-27T11:10:52.963Z,102590.66
2022-11-27T11:13:22.991Z,102609.34
2022-11-27T11:16:00.267Z,102608.16
2022-11-27T11:18:32.795Z,102607.41
2022-11-27T11:21:03.251Z,102593.25
2022-11-27T11:23:35.137Z,102621.91
2022-11-27T11:26:06.874Z,102620.09
2022-11-27T11:28:42.365Z,102614.00
2022-11-27T11:31:19.462Z,102606.22
2022-11-27T11:33:55.618Z,102604.53
2022-11-27T11:36:23.902Z,102596.00
2022-11-27T11:38:53.293Z,102588.09
2022-11-27T11:41:21.815Z,102549.56
2022-11-27T11:43:58.640Z,102597.53
2022-11-27T11:46:28.708Z,102578.22
2022-11-27T11:49:01.686Z,102559.81
2022-11-27T11:51:58.653Z,102595.59
2022-11-27T11:54:46.439Z,102587.41
2022-11-27T11:57:33.517Z,102550.19
2022-11-27T12:00:07.328Z,102583.91
2022-11-27T12:02:46.739Z,102573.44
2022-11-27T12:05:28.251Z,102574.34
2022-11-27T12:08:14.691Z,102577.44
2022-11-27T12:10:54.781Z,102579.41
2022-11-27T12:13:34.197Z,102577.84
2022-11-27T12:16:10.389Z,102575.25
2022-11-27T12:18:48.233Z,102561.63
2022-11-27T12:21:22.788Z,102524.69
2022-11-27T12:24:14.867Z,102571.22
2022-11-27T12:26:57.924Z,102575.13
2022-11-27T12:29:39.417Z,102582.13
2022-11-27T12:32:32.364Z,102580.44
2022-11-27T12:35:17.272Z,102580.31
2022-11-27T12:37:53.938Z,102575.13
2022-11-27T12:40:34.497Z,102578.50
2022-11-27T12:43:14.729Z,102579.41
2022-11-27T12:45:46.223Z,102570.72
2022-11-27T12:48:19.330Z,102569.03
2022-11-27T12:50:52.709Z,102566.19
2022-11-27T12:53:29.954Z,102550.75
2022-11-27T12:56:04.616Z,102559.56
2022-11-27T12:58:37.535Z,102564.22
2022-11-27T13:01:10.980Z,102561.38
2022-11-27T13:03:49.181Z,102555.16
2022-11-27T13:06:21.197Z,102556.06
2022-11-27T13:08:58.224Z,102456.41
2022-11-27T13:11:30.513Z,102547.25
2022-11-27T13:14:04.475Z,102547.25
2022-11-27T13:16:36.764Z,102544.53
2022-11-27T13:19:13.752Z,102534.94
2022-11-27T13:21:43.437Z,102505.50
2022-11-27T13:24:14.527Z,102530.00
2022-11-27T13:26:47.352Z,102494.53
2022-11-27T13:29:22.005Z,102531.94
2022-11-27T13:31:57.010Z,102532.56
2022-11-27T13:34:28.944Z,102539.31
2022-11-27T13:36:59.580Z,102503.41
2022-11-27T13:39:32.352Z,102502.50
2022-11-27T13:42:08.779Z,102495.66
2022-11-27T13:44:41.370Z,102522.47
2022-11-27T13:47:14.050Z,102533.22
2022-11-27T13:49:43.536Z,102522.47
2022-11-27T13:52:14.727Z,102523.50
2022-11-27T13:54:56.013Z,102520.25
2022-11-27T13:57:24.693Z,102516.75
2022-11-27T14:00:01.544Z,102496.25
2022-11-27T14:02:41.760Z,102525.94
2022-11-27T14:05:10.496Z,102531.75
2022-11-27T14:07:41.576Z,102498.44
2022-11-27T14:10:16.017Z,102519.97
2022-11-27T14:12:52.779Z,102525.13
2022-11-27T14:15:24.960Z,102526.53
2022-11-27T14:17:55.446Z,102530.19
2022-11-27T14:20:29.811Z,102530.19
2022-11-27T14:23:11.653Z,102524.88
2022-11-27T14:25:42.634Z,102523.69
2022-11-27T14:28:17.900Z,102482.72
2022-11-27T14:30:49.701Z,102521.88
2022-11-27T14:33:20.329Z,102495.41
2022-11-27T14:35:52.333Z,102515.53
2022-11-27T14:38:20.323Z,102524.88
2022-11-27T14:40:51.679Z,102522.41
2022-11-27T14:43:24.020Z,102525.00
2022-11-27T14:45:54.616Z,102520.31
2022-11-27T14:48:24.960Z,102525.78
2022-11-27T14:50:54.520Z,102525.28
2022-11-27T14:53:24.816Z,102532.13
2022-11-27T14:55:57.623Z,102535.63
2022-11-27T14:58:28.141Z,102534.06
2022-11-27T15:00:59.588Z,102530.44
2022-11-27T15:03:28.273Z,102535.13
2022-11-27T15:05:59.695Z,102437.25
2022-11-27T15:08:28.638Z,102532.53
2022-11-27T15:10:59.540Z,102524.91
2022-11-27T15:13:30.451Z,102530.06
2022-11-27T15:16:05.092Z,102530.06
2022-11-27T15:18:36.297Z,102533.56
2022-11-27T15:21:11.446Z,102535.38
2022-11-27T15:23:44.954Z,102531.13
2022-11-27T15:26:20.006Z,102525.16
2022-11-27T15:28:53.250Z,102409.94
2022-11-27T15:31:27.681Z,102478.75
2022-11-27T15:33:57.508Z,102520.91
2022-11-27T15:36:25.858Z,102529.56
2022-11-27T15:38:53.951Z,102526.22
2022-11-27T15:41:25.753Z,102527.13
2022-11-27T15:43:54.256Z,102521.94
2022-11-27T15:46:26.204Z,102479.44
2022-11-27T15:48:54.507Z,102509.25
2022-11-27T15:51:22.327Z,102506.28
2022-11-27T15:53:50.748Z,102514.84
2022-11-27T15:56:19.532Z,102518.75
2022-11-27T15:58:49.029Z,102511.75
2022-11-27T16:01:17.240Z,102513.69
2022-11-27T16:03:45.211Z,102502.03
2022-11-27T16:06:13.015Z,102517.19
2022-11-27T16:08:41.002Z,102521.47
2022-11-27T16:11:13.567Z,102520.41
2022-11-27T16:13:41.729Z,102524.81
2022-11-27T16:16:11.462Z,102520.56
2022-11-27T16:18:39.383Z,102522.22
2022-11-27T16:21:08.947Z,102511.88
2022-11-27T16:23:37.353Z,102515.25
2022-11-27T16:26:05.857Z,102521.31
2022-11-27T16:28:33.893Z,102505.78
2022-11-27T16:31:03.827Z,102511.09
2022-11-27T16:33:33.658Z,102513.69
2022-11-27T16:36:06.662Z,102512.91
2022-11-27T16:38:34.776Z,102504.75
2022-11-27T16:41:03.927Z,102488.31
2022-11-27T16:43:36.267Z,102496.34
2022-11-27T16:46:06.814Z,102490.38
2022-11-27T16:48:37.371Z,102497.50
2022-11-27T16:51:06.107Z,102497.50
2022-11-27T16:53:34.258Z,102491.03
2022-11-27T16:56:02.513Z,102465.75
2022-11-27T16:58:33.994Z,102504.59
2022-11-27T17:01:01.901Z,102502.78
2022-11-27T17:03:29.923Z,102497.59
2022-11-27T17:05:59.214Z,102496.84
2022-11-27T17:08:27.224Z,102392.69
2022-11-27T17:10:55.370Z,102492.44
2022-11-27T17:13:24.753Z,102483.25
2022-11-27T17:15:52.785Z,102491.44
2022-11-27T17:18:20.657Z,102493.09
2022-11-27T17:20:48.483Z,102499.19
2022-11-27T17:23:17.833Z,102490.13
2022-11-27T17:25:45.705Z,102500.88
2022-11-27T17:28:13.517Z,102490.91
2022-11-27T17:30:41.532Z,102506.97
2022-11-27T17:33:09.435Z,102504.38
2022-11-27T17:35:37.288Z,102478.47
2022-11-27T17:38:05.340Z,102491.28
2022-11-27T17:40:34.669Z,102493.88
2022-11-27T17:43:02.468Z,102502.56
2022-11-27T17:45:30.935Z,102497.38
2022-11-27T17:48:00.246Z,102493.88
2022-11-27T17:50:28.156Z,102495.81
2022-11-27T17:52:56.183Z,102481.19
2022-11-27T17:55:24.069Z,102499.28
2022-11-27T17:57:53.862Z,102359.16
2022-11-27T18:00:22.064Z,102476.13
2022-11-27T18:02:50.021Z,102483.38
2022-11-27T18:05:19.347Z,102433.50
2022-11-27T18:07:47.288Z,102477.03
2022-11-27T18:10:15.156Z,102474.44
2022-11-27T18:12:42.943Z,102490.00
2022-11-27T18:15:14.624Z,102486.50
2022-11-27T18:17:42.534Z,102487.25
2022-11-27T18:20:11.877Z,102485.59
2022-11-27T18:22:39.821Z,102488.31
2022-11-27T18:25:08.093Z,102494.41
2022-11-27T18:27:36.007Z,102500.47
2022-11-27T18:30:04.697Z,102496.22
2022-11-27T18:32:33.977Z,102501.50
2022-11-27T18:35:01.775Z,102502.44
2022-11-27T18:37:29.778Z,102496.59
2022-11-27T18:39:57.823Z,102513.56
2022-11-27T18:42:25.704Z,102508.38
2022-11-27T18:44:53.858Z,102494.91
2022-11-27T18:47:21.995Z,102502.94
2022-11-27T18:49:51.982Z,102502.41
2022-11-27T18:52:19.888Z,102514.19
2022-11-27T18:54:48.085Z,102509.03
2022-11-27T18:57:16.144Z,102517.69
2022-11-27T18:59:44.852Z,102512.53
2022-11-27T19:02:14.519Z,102514.19
2022-11-27T19:04:44.340Z,102511.63
2022-11-27T19:07:14.756Z,102510.56
2022-11-27T19:09:42.997Z,102506.28
2022-11-27T19:12:12.274Z,102502.03
2022-11-27T19:14:40.854Z,102502.03
2022-11-27T19:17:11.997Z,102505.38
2022-11-27T19:19:55.705Z,102507.22
2022-11-27T19:22:25.264Z,102511.63
2022-11-27T19:24:53.115Z,102504.47
2022-11-27T19:27:28.848Z,102509.16
2022-11-27T19:29:59.784Z,102503.56
2022-11-27T19:32:27.723Z,102517.06
2022-11-27T19:34:55.632Z,102516.28
2022-11-27T19:37:33.997Z,102497.75
2022-11-27T19:40:05.769Z,102512.13
2022-11-27T19:42:36.315Z,102514.72
2022-11-27T19:45:07.909Z,102511.22
2022-11-27T19:47:37.824Z,102502.44
2022-11-27T19:50:09.843Z,102494.25
2022-11-27T19:52:39.671Z,102496.34
2022-11-27T19:55:08.055Z,102499.97
2022-11-27T19:57:37.478Z,102501.78
2022-11-27T20:00:06.826Z,102501.66
2022-11-27T20:02:36.056Z,102506.84
2022-11-27T20:05:04.588Z,102508.50
2022-11-27T20:07:33.206Z,102508.38
2022-11-27T20:10:02.691Z,102505.00
2022-11-27T20:12:37.036Z,102508.50
2022-11-27T20:15:09.116Z,102443.94
2022-11-27T20:17:37.203Z,102505.91
2022-11-27T20:20:05.817Z,102495.56
2022-11-27T20:22:33.779Z,102493.88
2022-11-27T20:25:18.932Z,102495.56
2022-11-27T20:27:48.093Z,102494.00
2022-11-27T20:30:16.285Z,102497.50
2022-11-27T20:32:47.385Z,102483.13
2022-11-27T20:35:18.213Z,102489.75
2022-11-27T20:37:46.045Z,102480.81
2022-11-27T20:40:15.488Z,102480.38
2022-11-27T20:42:43.448Z,102479.47
2022-11-27T20:45:16.198Z,102481.28
2022-11-27T20:47:54.556Z,102483.88
2022-11-27T20:50:22.463Z,102495.16
2022-11-27T20:52:53.972Z,102472.13
2022-11-27T20:55:23.307Z,102489.31
2022-11-27T20:57:56.929Z,102485.97
2022-11-27T21:00:25.433Z,102443.47
2022-11-27T21:02:53.211Z,102452.44
2022-11-27T21:05:21.242Z,102495.94
2022-11-27T21:07:51.674Z,102498.53
2022-11-27T21:10:25.635Z,102497.75
2022-11-27T21:12:58.182Z,102493.75
2022-11-27T21:15:31.121Z,102494.66
2022-11-27T21:17:59.004Z,102499.19
2022-11-27T21:20:26.861Z,102493.22
2022-11-27T21:22:54.673Z,102488.03
2022-11-27T21:25:25.448Z,102483.00
2022-11-27T21:27:55.932Z,102477.03
2022-11-27T21:30:25.422Z,102483.25
2022-11-27T21:32:56.227Z,102486.88
2022-11-27T21:35:31.571Z,102462.91
2022-11-27T21:38:01.792Z,102480.28
2022-11-27T21:40:37.048Z,102281.53
2022-11-27T21:43:09.244Z,102490.13
2022-11-27T21:45:52.649Z,102496.22
2022-11-27T21:48:25.518Z,102315.59
2022-11-27T21:51:03.898Z,102476.91
2022-11-27T21:53:32.969Z,102490.66
2022-11-27T21:56:04.875Z,102503.88
2022-11-27T21:58:34.293Z,102495.31
2022-11-27T22:01:04.655Z,102503.34
2022-11-27T22:03:33.074Z,102494.78
2022-11-27T22:06:02.691Z,102424.19
2022-11-27T22:08:31.041Z,102501.28
2022-11-27T22:10:59.129Z,102468.09
2022-11-27T22:13:28.286Z,102491.56
2022-11-27T22:15:56.113Z,102498.94
2022-11-27T22:18:25.452Z,102499.84
2022-11-27T22:20:53.513Z,102499.97
2022-11-27T22:23:21.418Z,102511.38
2022-11-27T22:25:49.564Z,102505.28
2022-11-27T22:28:17.359Z,102495.31
2022-11-27T22:30:45.239Z,102498.28
2022-11-27T22:33:13.363Z,102506.44
2022-11-27T22:35:42.528Z,102506.56
2022-11-27T22:38:10.322Z,102496.97
2022-11-27T22:40:38.381Z,102498.16
2022-11-27T22:43:06.172Z,102498.28
2022-11-27T22:45:34.296Z,102495.69
2022-11-27T22:48:02.301Z,102491.41
2022-11-27T22:50:30.105Z,102491.16
2022-11-27T22:52:59.274Z,102458.75
2022-11-27T22:55:27.856Z,102487.91
2022-11-27T22:57:55.666Z,102495.56
2022-11-27T23:00:24.077Z,102491.16
2022-11-27T23:02:52.525Z,102503.06
2022-11-27T23:05:20.373Z,102495.03
2022-11-27T23:07:48.233Z,102502.31
2022-11-27T23:10:18.991Z,102502.31
2022-11-27T23:12:46.792Z,102502.31
2022-11-27T23:15:14.645Z,102499.72
2022-11-27T23:17:42.800Z,102490.25
2022-11-27T23:20:11.404Z,102450.34
2022-11-27T23:22:39.202Z,102493.75
2022-11-27T23:25:08.099Z,102494.78
2022-11-27T23:27:37.292Z,102483.25
2022-11-27T23:30:05.900Z,102493.09
2022-11-27T23:32:34.610Z,102495.69
2022-11-27T23:35:02.457Z,102496.59
2022-11-27T23:37:30.263Z,102405.81
2022-11-27T23:39:58.375Z,102473.28
2022-11-27T23:42:26.195Z,102506.44
2022-11-27T23:44:55.365Z,102494.66
2022-11-27T23:47:23.440Z,102506.44
2022-11-27T23:49:51.261Z,102507.47
2022-11-27T23:52:19.077Z,102509.28
2022-11-27T23:54:47.244Z,102505.91
2022-11-27T23:57:15.188Z,102509.41
2022-11-27T23:59:42.979Z,102492.19
